الصفحة الرئيسية
METAR-TAF:

METAR-TAF

مطار :

بوغوتا, كولومبيا

مطار إلدورادو الدولي

دائرة عرض: 04-43N, خط طول: 074-09W, ارتفاع: 2547 متر

مراقبة الطقس الحالي

تاريخ ووقت الإصدار 35 دقيقة قبل الساعة 13:00UTC
ريح 4 عقدة من الشرق/الشمال الشرقي
درجة الحرارة 16°درجة مئوية
الرطوبة 63%
ضغط 1028 hPa
الرؤية 10 كم أو أكثر
غيوم قليلة على ارتفاع 1700 قدم
غيوم متفرقة على ارتفاع 7000 قدم

METAR: SKBO 231300Z 06004KT 9999 FEW017 SCT070 16/09 A3037

زمن: 08:35 (13:35 UTC)

توقعات

تاريخ ووقت الإصدار 2ساعات و 35 دقيقة قبل الساعة 11:00UTC
التوقعات صالحة من23 الساعة 12 UTC إلى 24 الساعة 12 UTC
ريح 2 عقدةمن اتجاهات متغيرة
الرؤية 10 كم أو أكثر
غيوم متفرقة على ارتفاع 1700 قدم
غيوم مفككة على ارتفاع 7000 قدم
مؤقت
من 23 الساعة 12 UTC إلى 23 الساعة 13 UTC
الرؤية: 7000 متر
زخات في الجوار
أصبح
من 23 الساعة 16 UTC إلى 23 الساعة 17 UTC
ريح 10 عقدة من الجنوب الشرقي
أصبح
من 24 الساعة 00 UTC إلى 24 الساعة 01 UTC
ريح 2 عقدةمن اتجاهات متغيرة

TAF: SKBO 231100Z 2312/2412 VRB02KT 9999 SCT017 BKN070 TEMPO 2312/2313 7000 VCSH BECMG 2316/2317 13010KT BECMG 2400/2401 VRB02KT TX19/2318Z TN10/2411Z

أرصاد الطقس والتوقعات من أكثر من 4000 مطار (تقارير الطقس للمطار METAR والتنبؤ بالطقس بالمطارTAF).

المحطات المتاحة هي النقط الصفراء والحمراء على الخريطة.

حرك المؤشر فوق النقطة لمعرفة اسم المحطة.

ثم انقر لمعرفة أرصاد وتوقعات الطقس.

لتغيير الخارطة: اضغط على الأزرار الخضراء مع رمز الصليب الأسود للتكبير. على الزر الأخضر مع شرطة للتصغير، أو على الأسهم الخضراء للخرائط المجاورة.


METAR-TAF: